Time;durP1;ratioP1;P1;durP2;ratioP2;P2;SDS_P1;SDS_P2;PMS_P1;PMS_P2;Temp;Humidity;BMP_temperature;BMP_pressure;BME280_temperature;BME280_humidity;BME280_pressure;Samples;Min_cycle;Max_cycle;Signal;HPM_P1;HPM_P2
2021/03/18 00:00:46;;;;;;;15.63;11.70;;;5.80;95.00;;;;;;5073272;28;20197;-75
2021/03/18 00:03:13;;;;;;;11.07;9.98;;;5.80;95.00;;;;;;5074253;28;20187;-75
2021/03/18 00:05:40;;;;;;;13.00;11.25;;;5.80;95.00;;;;;;5081985;28;20197;-75
2021/03/18 00:08:05;;;;;;;11.75;10.52;;;5.80;95.00;;;;;;5072026;28;20177;-76
2021/03/18 00:10:31;;;;;;;16.70;10.77;;;5.70;94.80;;;;;;5088921;28;20175;-75
2021/03/18 00:12:57;;;;;;;12.20;10.20;;;5.70;94.60;;;;;;5092008;28;20450;-75
2021/03/18 00:15:23;;;;;;;11.33;10.30;;;5.70;94.60;;;;;;5091366;28;20177;-75
2021/03/18 00:17:49;;;;;;;11.20;9.95;;;5.70;94.40;;;;;;5091845;28;20464;-75
2021/03/18 00:20:16;;;;;;;13.20;10.93;;;5.70;94.70;;;;;;5091479;28;20541;-75
2021/03/18 00:22:43;;;;;;;12.90;10.45;;;5.70;94.90;;;;;;5092716;28;20259;-75
2021/03/18 00:25:11;;;;;;;11.27;9.30;;;5.60;94.90;;;;;;5091380;28;20188;-76
2021/03/18 00:27:39;;;;;;;11.88;10.57;;;5.60;94.80;;;;;;5092188;28;20176;-75
2021/03/18 00:30:07;;;;;;;12.05;10.25;;;5.60;94.80;;;;;;5092463;28;20168;-74
2021/03/18 00:32:34;;;;;;;11.93;9.77;;;5.60;94.90;;;;;;5084081;28;20166;-75
2021/03/18 00:35:00;;;;;;;11.00;9.82;;;5.50;95.00;;;;;;5090381;28;20185;-74
2021/03/18 00:37:26;;;;;;;11.80;10.50;;;5.50;95.00;;;;;;5091515;28;20173;-75
2021/03/18 00:39:54;;;;;;;11.10;10.00;;;5.50;95.20;;;;;;5092340;28;20171;-74
2021/03/18 00:42:21;;;;;;;11.02;9.80;;;5.50;95.20;;;;;;5090162;28;20410;-74
2021/03/18 00:44:46;;;;;;;14.13;11.05;;;5.50;95.10;;;;;;5055105;28;20224;-74
2021/03/18 00:47:13;;;;;;;13.15;10.23;;;5.60;95.20;;;;;;5071455;28;20565;-75
2021/03/18 00:49:38;;;;;;;11.30;10.13;;;5.50;95.10;;;;;;5071358;28;20180;-75
2021/03/18 00:52:04;;;;;;;11.63;10.43;;;5.50;95.00;;;;;;5056745;28;20382;-74
2021/03/18 00:54:30;;;;;;;13.23;11.00;;;5.50;95.00;;;;;;5071416;28;20192;-74
2021/03/18 00:56:56;;;;;;;11.47;10.27;;;5.50;94.80;;;;;;5054014;28;20431;-74
2021/03/18 00:59:22;;;;;;;11.67;9.63;;;5.40;95.00;;;;;;5071309;28;20165;-75
2021/03/18 01:01:47;;;;;;;13.00;9.40;;;5.40;95.00;;;;;;5091361;28;20411;-75
2021/03/18 01:04:13;;;;;;;12.50;10.33;;;5.40;95.10;;;;;;5072794;28;20422;-75
2021/03/18 01:06:39;;;;;;;14.63;10.60;;;5.40;95.20;;;;;;5090343;28;20202;-75
2021/03/18 01:09:06;;;;;;;11.30;9.97;;;5.40;95.30;;;;;;5090961;28;20260;-75
2021/03/18 01:11:36;;;;;;;11.00;9.90;;;5.40;95.50;;;;;;5075069;28;20173;-74
2021/03/18 01:14:13;;;;;;;13.35;10.30;;;5.40;95.40;;;;;;5076750;28;20234;-75
2021/03/18 01:16:49;;;;;;;11.32;9.80;;;5.40;95.30;;;;;;5075401;28;20164;-75
2021/03/18 01:19:17;;;;;;;11.15;9.77;;;5.40;95.50;;;;;;5090481;28;20258;-75
2021/03/18 01:21:46;;;;;;;10.95;9.85;;;5.40;95.50;;;;;;5077537;28;20562;-75
2021/03/18 01:24:13;;;;;;;12.57;10.23;;;5.50;95.70;;;;;;5074485;28;20177;-76
2021/03/18 01:26:40;;;;;;;12.43;10.75;;;5.40;95.70;;;;;;5081853;28;20189;-74
2021/03/18 01:29:07;;;;;;;11.82;10.20;;;5.20;96.00;;;;;;5081455;28;20212;-74
2021/03/18 01:31:34;;;;;;;11.77;10.20;;;5.20;96.40;;;;;;5074657;28;20185;-74
2021/03/18 01:34:00;;;;;;;12.70;9.95;;;5.20;96.60;;;;;;5076472;28;20558;-75
2021/03/18 01:36:26;;;;;;;11.73;9.52;;;5.30;96.50;;;;;;5082075;28;20653;-75
2021/03/18 01:38:52;;;;;;;12.43;10.20;;;5.30;96.50;;;;;;5095298;28;20635;-75
2021/03/18 01:41:22;;;;;;;10.33;9.30;;;5.30;96.50;;;;;;5058348;28;20172;-75
2021/03/18 01:43:48;;;;;;;10.93;9.52;;;5.30;96.40;;;;;;5093707;28;20668;-75
2021/03/18 01:46:14;;;;;;;12.00;10.60;;;5.40;96.50;;;;;;5094134;28;20216;-76
2021/03/18 01:48:42;;;;;;;12.70;9.95;;;5.40;96.40;;;;;;5067576;28;20433;-74
2021/03/18 01:51:09;;;;;;;10.85;9.27;;;5.40;96.50;;;;;;5075318;28;20169;-75
2021/03/18 01:53:34;;;;;;;12.52;9.60;;;5.40;96.50;;;;;;5074131;28;20181;-75
2021/03/18 01:56:04;;;;;;;11.03;9.57;;;5.50;96.40;;;;;;5074892;28;20175;-75
2021/03/18 01:58:31;;;;;;;12.90;10.27;;;5.50;96.20;;;;;;5056225;28;20173;-75
2021/03/18 02:00:59;;;;;;;11.43;10.13;;;5.50;96.10;;;;;;5074668;28;20181;-74
2021/03/18 02:03:26;;;;;;;11.85;10.60;;;5.50;96.10;;;;;;5081129;28;20176;-74
2021/03/18 02:05:52;;;;;;;11.90;10.50;;;5.50;96.10;;;;;;5083708;28;20207;-74
2021/03/18 02:08:18;;;;;;;12.07;10.30;;;5.50;95.80;;;;;;5073873;28;20181;-74
2021/03/18 02:10:44;;;;;;;11.17;10.07;;;5.50;95.70;;;;;;5057394;28;20165;-74
2021/03/18 02:13:12;;;;;;;11.02;9.90;;;5.50;95.70;;;;;;5076266;28;20991;-74
2021/03/18 02:16:02;;;;;;;14.50;10.40;;;5.50;95.90;;;;;;5093855;28;20215;-74
2021/03/18 02:18:47;;;;;;;11.73;10.02;;;5.50;95.70;;;;;;5091487;28;20604;-74
2021/03/18 02:21:37;;;;;;;12.35;9.50;;;5.60;95.60;;;;;;5094489;28;20196;-76
2021/03/18 02:24:22;;;;;;;10.15;9.15;;;5.60;95.60;;;;;;5094134;28;20519;-74
2021/03/18 02:27:29;;;;;;;15.15;9.63;;;5.60;95.20;;;;;;5094506;28;20203;-74
2021/03/18 02:30:32;;;;;;;10.43;9.32;;;5.50;94.90;;;;;;5076265;28;20480;-74
2021/03/18 02:33:47;;;;;;;10.65;9.48;;;5.50;95.10;;;;;;5093861;28;20180;-74
2021/03/18 02:36:19;;;;;;;12.55;10.82;;;5.40;95.10;;;;;;5094354;28;20157;-75
2021/03/18 02:38:54;;;;;;;10.70;9.60;;;5.40;95.10;;;;;;5089455;28;20166;-74
2021/03/18 02:41:28;;;;;;;10.68;9.30;;;5.30;95.20;;;;;;5073374;28;20157;-75
2021/03/18 02:44:09;;;;;;;11.38;8.85;;;5.30;95.50;;;;;;5085118;28;20196;-74
2021/03/18 02:46:37;;;;;;;10.93;9.60;;;5.30;95.50;;;;;;5080306;28;20234;-74
2021/03/18 02:49:05;;;;;;;11.15;9.65;;;5.20;95.40;;;;;;5094115;28;20506;-74
2021/03/18 02:51:33;;;;;;;13.98;9.50;;;5.20;95.30;;;;;;5084669;28;20169;-74
2021/03/18 02:54:04;;;;;;;11.10;9.95;;;5.20;95.50;;;;;;5085051;28;20176;-74
2021/03/18 02:56:30;;;;;;;10.30;9.40;;;5.20;95.70;;;;;;5093257;28;20153;-74
2021/03/18 02:59:00;;;;;;;10.50;9.50;;;5.20;95.60;;;;;;5075938;28;20176;-74
2021/03/18 03:01:26;;;;;;;13.70;10.35;;;5.20;95.50;;;;;;5093153;28;20169;-74
2021/03/18 03:03:54;;;;;;;11.05;9.90;;;5.20;95.70;;;;;;5074046;28;20176;-74
2021/03/18 03:06:21;;;;;;;11.35;9.90;;;5.20;96.20;;;;;;5074504;28;20192;-74
2021/03/18 03:08:47;;;;;;;15.13;9.77;;;5.20;96.10;;;;;;5083133;28;20529;-74
2021/03/18 03:11:17;;;;;;;12.82;10.30;;;5.20;96.00;;;;;;5073497;28;20590;-74
2021/03/18 03:13:44;;;;;;;12.82;10.85;;;5.20;95.90;;;;;;5083055;28;20187;-74
2021/03/18 03:16:13;;;;;;;11.18;10.02;;;5.20;95.80;;;;;;5093626;28;20164;-74
2021/03/18 03:18:40;;;;;;;11.40;10.20;;;5.20;95.50;;;;;;5091917;28;20671;-74
2021/03/18 03:21:08;;;;;;;12.55;11.25;;;5.20;95.40;;;;;;5093591;28;20179;-74
2021/03/18 03:23:35;;;;;;;12.52;11.15;;;5.30;95.40;;;;;;5084956;28;20169;-74
2021/03/18 03:26:02;;;;;;;11.85;10.18;;;5.20;95.50;;;;;;5072912;28;20208;-74
2021/03/18 03:28:29;;;;;;;12.52;11.32;;;5.30;95.70;;;;;;5072095;28;20177;-74
2021/03/18 03:30:57;;;;;;;12.25;10.93;;;5.30;95.60;;;;;;5072130;28;20230;-74
2021/03/18 03:33:23;;;;;;;16.60;11.27;;;5.30;95.60;;;;;;5061505;28;20200;-74
2021/03/18 03:35:49;;;;;;;13.00;10.73;;;5.30;95.60;;;;;;5075932;28;20207;-74
2021/03/18 03:38:15;;;;;;;11.52;10.40;;;5.20;95.60;;;;;;5055063;28;20208;-75
2021/03/18 03:40:41;;;;;;;11.70;10.40;;;5.30;95.40;;;;;;5072054;28;20173;-75
2021/03/18 03:43:08;;;;;;;12.10;10.90;;;5.20;95.20;;;;;;5072945;28;20188;-74
2021/03/18 03:45:34;;;;;;;12.40;11.07;;;5.20;95.20;;;;;;5072602;28;20572;-75
2021/03/18 03:48:00;;;;;;;12.75;11.43;;;5.20;95.40;;;;;;5072799;28;20200;-74
2021/03/18 03:50:28;;;;;;;14.90;11.50;;;5.20;95.40;;;;;;5087790;28;20720;-75
2021/03/18 03:53:22;;;;;;;12.20;10.93;;;5.20;95.10;;;;;;5089941;28;21260;-75
2021/03/18 03:56:16;;;;;;;13.45;10.65;;;5.10;95.20;;;;;;5072392;28;20664;-74
2021/03/18 03:58:48;;;;;;;15.02;10.63;;;5.10;95.40;;;;;;5080302;28;20160;-74
2021/03/18 04:01:49;;;;;;;12.73;10.57;;;5.10;95.50;;;;;;5092877;28;20165;-75
2021/03/18 04:04:35;;;;;;;13.38;11.55;;;5.10;95.30;;;;;;5072088;28;20188;-74
2021/03/18 04:07:05;;;;;;;16.83;11.45;;;5.10;95.60;;;;;;5072352;28;20671;-74
2021/03/18 04:09:32;;;;;;;12.98;11.68;;;5.10;95.90;;;;;;5053892;28;20177;-75
2021/03/18 04:12:00;;;;;;;12.65;11.35;;;5.10;96.00;;;;;;5054622;28;20161;-74
2021/03/18 04:14:30;;;;;;;13.95;12.52;;;5.10;96.20;;;;;;5072872;28;20180;-75
2021/03/18 04:17:03;;;;;;;17.23;13.20;;;5.10;96.40;;;;;;5072437;28;20238;-74
2021/03/18 04:19:28;;;;;;;14.02;12.55;;;5.20;96.50;;;;;;5071575;28;20173;-75
2021/03/18 04:21:55;;;;;;;16.60;12.47;;;5.20;96.40;;;;;;5072453;28;20173;-75
2021/03/18 04:24:23;;;;;;;15.25;13.10;;;5.30;96.40;;;;;;5087009;28;20429;-75
2021/03/18 04:26:51;;;;;;;14.20;12.70;;;5.30;96.30;;;;;;5074136;28;20200;-74
2021/03/18 04:29:18;;;;;;;12.65;11.52;;;5.20;96.30;;;;;;5091311;28;20180;-75
2021/03/18 04:31:45;;;;;;;14.57;12.65;;;5.20;96.50;;;;;;5091647;28;20554;-75
2021/03/18 04:34:13;;;;;;;15.45;13.77;;;5.20;96.60;;;;;;5090520;28;20173;-74
2021/03/18 04:36:41;;;;;;;16.23;13.63;;;5.30;96.70;;;;;;5091566;28;20522;-74
2021/03/18 04:39:07;;;;;;;20.83;14.18;;;5.30;96.50;;;;;;5080105;28;20226;-74
2021/03/18 04:41:35;;;;;;;17.52;13.65;;;5.40;96.50;;;;;;5071014;28;20617;-75
2021/03/18 04:44:01;;;;;;;16.17;13.07;;;5.40;96.50;;;;;;5088239;28;20164;-74
2021/03/18 04:46:29;;;;;;;18.63;14.20;;;5.40;96.50;;;;;;5095338;28;20227;-75
2021/03/18 04:48:58;;;;;;;16.45;14.82;;;5.40;96.70;;;;;;5085900;28;20169;-75
2021/03/18 04:51:24;;;;;;;16.50;14.80;;;5.50;96.60;;;;;;5075967;28;20180;-75
2021/03/18 04:53:49;;;;;;;15.80;14.15;;;5.50;96.60;;;;;;5076476;28;20261;-74
2021/03/18 04:56:18;;;;;;;18.40;15.73;;;5.50;96.90;;;;;;5076463;28;20223;-74
2021/03/18 04:58:46;;;;;;;16.95;13.95;;;5.50;97.10;;;;;;5090601;28;20570;-74
2021/03/18 05:01:12;;;;;;;16.73;14.00;;;5.50;97.00;;;;;;5096472;28;20161;-75
2021/03/18 05:03:41;;;;;;;16.80;15.20;;;5.60;96.80;;;;;;5086543;28;20196;-74
2021/03/18 05:06:08;;;;;;;18.58;16.55;;;5.50;96.70;;;;;;5076140;28;20263;-75
2021/03/18 05:08:35;;;;;;;18.50;16.40;;;5.50;96.60;;;;;;5082756;28;20248;-75
2021/03/18 05:11:02;;;;;;;18.05;16.25;;;5.60;96.60;;;;;;5096387;28;20173;-75
2021/03/18 05:13:29;;;;;;;16.63;14.82;;;5.60;96.60;;;;;;5087801;28;20180;-75
2021/03/18 05:15:57;;;;;;;15.38;13.68;;;5.70;96.50;;;;;;5072276;28;20607;-75
2021/03/18 05:18:24;;;;;;;16.35;14.43;;;5.70;96.30;;;;;;5095436;28;20199;-76
2021/03/18 05:20:50;;;;;;;16.55;14.63;;;5.70;96.40;;;;;;5096210;28;20172;-75
2021/03/18 05:23:17;;;;;;;16.35;14.63;;;5.70;96.30;;;;;;5096152;28;20168;-75
2021/03/18 05:25:45;;;;;;;18.92;15.45;;;5.80;96.40;;;;;;5086201;28;20205;-75
2021/03/18 05:28:12;;;;;;;17.40;15.60;;;5.70;96.30;;;;;;5075790;28;20218;-75
2021/03/18 05:30:38;;;;;;;17.38;14.95;;;5.70;96.40;;;;;;5057326;28;20180;-75
2021/03/18 05:33:05;;;;;;;18.60;16.25;;;5.70;96.40;;;;;;5075672;28;20226;-75
2021/03/18 05:35:32;;;;;;;18.90;16.90;;;5.70;96.30;;;;;;5056427;28;20613;-75
2021/03/18 05:37:59;;;;;;;17.15;14.73;;;5.70;96.40;;;;;;5075227;28;20181;-75
2021/03/18 05:40:24;;;;;;;19.65;15.65;;;5.70;96.30;;;;;;5074891;28;20177;-76
2021/03/18 05:42:51;;;;;;;20.23;16.73;;;5.70;96.30;;;;;;5074456;28;20170;-75
2021/03/18 05:45:18;;;;;;;17.50;15.27;;;5.70;96.40;;;;;;5075988;28;20908;-75
2021/03/18 05:47:44;;;;;;;24.23;18.40;;;5.70;96.50;;;;;;5067211;28;20177;-75
2021/03/18 05:50:13;;;;;;;17.97;15.30;;;5.80;96.70;;;;;;5075191;28;20497;-75
2021/03/18 05:52:39;;;;;;;19.13;17.13;;;5.80;96.60;;;;;;5070641;28;20263;-75
2021/03/18 05:55:06;;;;;;;16.10;14.43;;;5.80;96.50;;;;;;5094152;28;20251;-75
2021/03/18 05:57:36;;;;;;;17.60;15.90;;;5.80;96.40;;;;;;5075999;28;20942;-75
2021/03/18 06:00:09;;;;;;;17.38;15.55;;;5.90;96.50;;;;;;5093751;28;20191;-75
2021/03/18 06:02:35;;;;;;;16.75;15.05;;;5.90;96.40;;;;;;5076725;28;20168;-75
2021/03/18 06:05:10;;;;;;;18.80;15.63;;;5.90;96.50;;;;;;5095407;28;20623;-75
2021/03/18 06:07:38;;;;;;;20.17;14.93;;;5.90;96.80;;;;;;5095000;28;20186;-75
2021/03/18 06:10:09;;;;;;;18.40;16.05;;;5.90;96.90;;;;;;5095260;28;20173;-75
2021/03/18 06:12:39;;;;;;;19.13;15.30;;;5.90;97.00;;;;;;5093899;28;20160;-75
2021/03/18 06:15:10;;;;;;;16.10;14.55;;;5.90;96.90;;;;;;5074951;28;20173;-74
2021/03/18 06:17:36;;;;;;;15.73;13.85;;;5.90;96.90;;;;;;5056471;28;20161;-72
2021/03/18 06:20:08;;;;;;;17.90;16.02;;;5.90;97.00;;;;;;5057137;28;20260;-74
2021/03/18 06:22:39;;;;;;;16.65;14.88;;;6.00;97.10;;;;;;5074134;28;20168;-74
2021/03/18 06:25:19;;;;;;;17.13;15.52;;;6.00;97.00;;;;;;5074583;28;20224;-73
2021/03/18 06:27:45;;;;;;;18.58;16.80;;;6.10;97.00;;;;;;5092685;28;20157;-74
2021/03/18 06:30:11;;;;;;;17.33;15.63;;;6.10;96.90;;;;;;5094986;28;20179;-75
2021/03/18 06:32:37;;;;;;;19.75;17.85;;;6.10;96.60;;;;;;5094446;28;20857;-75
2021/03/18 06:35:04;;;;;;;20.40;17.27;;;6.20;96.70;;;;;;5094792;28;20196;-75
2021/03/18 06:37:40;;;;;;;18.90;16.75;;;6.20;96.70;;;;;;5093720;28;20756;-75
2021/03/18 06:40:05;;;;;;;19.88;17.88;;;6.30;96.60;;;;;;5094697;28;20588;-74
2021/03/18 06:42:32;;;;;;;21.27;17.50;;;6.30;96.50;;;;;;5075944;28;20180;-74
2021/03/18 06:45:15;;;;;;;20.50;17.20;;;6.40;96.30;;;;;;5076131;28;20212;-74
2021/03/18 06:47:50;;;;;;;19.17;17.30;;;6.40;96.20;;;;;;5075785;28;20172;-74
2021/03/18 06:50:21;;;;;;;18.92;16.85;;;6.40;96.30;;;;;;5094440;28;20168;-74
2021/03/18 06:52:47;;;;;;;20.23;18.00;;;6.50;96.40;;;;;;5093820;28;20474;-74
2021/03/18 06:55:25;;;;;;;20.02;17.67;;;6.50;96.40;;;;;;5094374;28;20190;-74
2021/03/18 06:58:14;;;;;;;19.17;17.15;;;6.50;96.40;;;;;;5093739;28;20613;-74
2021/03/18 07:00:41;;;;;;;19.60;17.60;;;6.40;96.30;;;;;;5093723;28;20505;-74
2021/03/18 07:03:10;;;;;;;22.07;17.97;;;6.50;96.40;;;;;;5076139;28;20172;-74
2021/03/18 07:05:38;;;;;;;19.75;17.70;;;6.60;96.40;;;;;;5093608;28;20447;-75
2021/03/18 07:08:05;;;;;;;20.20;18.10;;;6.70;96.30;;;;;;5093384;28;20181;-74
2021/03/18 07:10:36;;;;;;;22.15;17.77;;;6.70;96.00;;;;;;5093338;28;20517;-77
2021/03/18 07:13:15;;;;;;;22.73;18.23;;;6.80;96.10;;;;;;5093705;28;20154;-74
2021/03/18 07:15:41;;;;;;;19.33;17.47;;;6.80;96.00;;;;;;5093236;28;20411;-74
2021/03/18 07:18:07;;;;;;;19.10;17.17;;;6.90;96.00;;;;;;5094016;28;20382;-75
2021/03/18 07:20:32;;;;;;;20.17;17.13;;;6.90;95.70;;;;;;5093407;28;20172;-75
2021/03/18 07:22:58;;;;;;;18.33;16.63;;;6.90;95.80;;;;;;5093872;28;20170;-75
2021/03/18 07:25:26;;;;;;;22.30;19.47;;;6.90;95.70;;;;;;5093795;28;20196;-74
2021/03/18 07:27:55;;;;;;;20.00;18.00;;;7.00;96.10;;;;;;5093173;28;20175;-74
2021/03/18 07:30:27;;;;;;;21.20;18.57;;;7.10;96.40;;;;;;5093675;28;20395;-74
2021/03/18 07:32:54;;;;;;;19.03;17.00;;;7.10;96.10;;;;;;5074183;28;20563;-74
2021/03/18 07:35:21;;;;;;;19.37;16.63;;;7.20;95.90;;;;;;5081010;28;20401;-75
2021/03/18 07:37:47;;;;;;;19.27;17.27;;;7.20;95.80;;;;;;5091504;28;20430;-75
2021/03/18 07:40:13;;;;;;;22.23;17.80;;;7.30;95.90;;;;;;5093063;28;20484;-76
2021/03/18 07:42:39;;;;;;;20.17;18.17;;;7.30;96.00;;;;;;5092863;28;20389;-75
2021/03/18 07:45:07;;;;;;;19.10;17.30;;;7.40;96.00;;;;;;5093195;28;20426;-74
2021/03/18 07:47:34;;;;;;;18.10;16.30;;;7.40;96.10;;;;;;5074660;28;20433;-77
2021/03/18 07:50:01;;;;;;;22.90;17.03;;;7.40;96.20;;;;;;5092763;28;20403;-74
2021/03/18 07:52:28;;;;;;;20.77;18.20;;;7.50;96.10;;;;;;5092842;28;20896;-74
2021/03/18 07:54:56;;;;;;;20.90;17.98;;;7.50;96.00;;;;;;5087018;28;20384;-74
2021/03/18 07:57:23;;;;;;;20.00;17.93;;;7.60;96.10;;;;;;5092841;28;20201;-77
2021/03/18 07:59:49;;;;;;;17.97;16.37;;;7.60;96.20;;;;;;5073887;28;20415;-74
2021/03/18 08:02:22;;;;;;;19.43;17.40;;;7.70;96.10;;;;;;5082212;28;20398;-74
2021/03/18 08:04:49;;;;;;;19.10;15.87;;;7.70;95.80;;;;;;5072546;28;20190;-75
2021/03/18 08:07:40;;;;;;;19.27;16.20;;;7.80;95.60;;;;;;5056236;28;20926;-74
2021/03/18 08:10:10;;;;;;;18.47;16.47;;;7.90;95.70;;;;;;5074808;28;20895;-74
2021/03/18 08:12:51;;;;;;;19.80;17.70;;;8.00;95.80;;;;;;5092814;28;20396;-75
2021/03/18 08:15:23;;;;;;;15.77;14.23;;;7.80;95.60;;;;;;5077449;28;20408;-74
2021/03/18 08:17:49;;;;;;;20.87;16.57;;;8.00;96.20;;;;;;5071944;28;20731;-74
2021/03/18 08:20:37;;;;;;;21.67;15.77;;;8.00;95.60;;;;;;5072739;28;20373;-74
2021/03/18 08:23:25;;;;;;;17.37;15.77;;;8.10;95.90;;;;;;5054750;28;20392;-74
2021/03/18 08:25:52;;;;;;;22.13;17.10;;;8.20;95.40;;;;;;5058454;28;20976;-74
2021/03/18 08:28:48;;;;;;;18.70;16.90;;;8.30;95.70;;;;;;5092694;28;20826;-74
2021/03/18 08:31:22;;;;;;;23.00;16.93;;;8.30;95.40;;;;;;5093040;28;20806;-74
2021/03/18 08:33:55;;;;;;;18.30;16.27;;;8.30;95.00;;;;;;5091835;28;20382;-74
2021/03/18 08:36:23;;;;;;;17.10;15.37;;;8.30;95.40;;;;;;5092501;28;20929;-75
2021/03/18 08:38:51;;;;;;;19.77;16.63;;;8.40;95.30;;;;;;5092107;28;20413;-74
2021/03/18 08:41:42;;;;;;;22.50;17.00;;;8.50;95.20;;;;;;5088715;28;20392;-74
2021/03/18 08:44:31;;;;;;;18.50;16.43;;;8.60;95.10;;;;;;5076892;28;20396;-75
2021/03/18 08:47:02;;;;;;;18.17;16.17;;;8.60;95.10;;;;;;5080458;28;20455;-75
2021/03/18 08:49:41;;;;;;;18.87;16.80;;;8.70;95.20;;;;;;5090293;28;20459;-75
2021/03/18 08:52:11;;;;;;;18.10;16.10;;;8.70;95.10;;;;;;5079504;28;20415;-75
2021/03/18 08:54:40;;;;;;;19.30;15.93;;;8.80;95.10;;;;;;5067249;28;20425;-77
2021/03/18 08:57:09;;;;;;;17.43;15.70;;;8.80;94.30;;;;;;5074204;28;20457;-74
2021/03/18 08:59:37;;;;;;;17.17;15.57;;;8.90;94.60;;;;;;5072152;28;20393;-75
2021/03/18 09:02:04;;;;;;;17.50;15.80;;;8.90;94.30;;;;;;5072906;28;20431;-75
2021/03/18 09:04:47;;;;;;;18.67;15.30;;;9.00;94.10;;;;;;5082175;28;20415;-75
2021/03/18 09:07:15;;;;;;;18.80;16.83;;;9.10;93.70;;;;;;5072312;28;20533;-75
2021/03/18 09:09:42;;;;;;;16.47;14.73;;;9.10;93.70;;;;;;5072522;28;20902;-75
2021/03/18 09:12:09;;;;;;;19.50;15.93;;;9.10;93.80;;;;;;5076941;28;20422;-75
2021/03/18 09:14:39;;;;;;;18.10;14.60;;;9.20;94.20;;;;;;5071454;28;20499;-75
2021/03/18 09:17:13;;;;;;;17.53;15.83;;;9.20;94.30;;;;;;5077408;28;20395;-75
2021/03/18 09:19:45;;;;;;;19.60;16.50;;;9.20;93.80;;;;;;5083841;28;20409;-74
2021/03/18 09:22:15;;;;;;;17.20;15.40;;;9.20;94.20;;;;;;5084117;28;20953;-74
2021/03/18 09:24:44;;;;;;;18.03;13.80;;;9.20;94.40;;;;;;5071832;28;20454;-74
2021/03/18 09:27:13;;;;;;;15.97;14.33;;;9.20;94.20;;;;;;5071987;28;20450;-75
2021/03/18 09:29:40;;;;;;;16.07;14.37;;;9.20;94.20;;;;;;5074680;28;20454;-75
2021/03/18 09:32:08;;;;;;;15.37;13.67;;;9.20;94.30;;;;;;5081727;28;20416;-75
2021/03/18 09:34:39;;;;;;;15.80;14.30;;;9.20;94.30;;;;;;5094159;28;20422;-75
2021/03/18 09:37:05;;;;;;;15.63;13.93;;;9.20;94.30;;;;;;5085565;28;20445;-75
2021/03/18 09:39:31;;;;;;;12.13;10.83;;;9.30;94.50;;;;;;5095609;28;20425;-75
2021/03/18 09:41:59;;;;;;;15.00;13.70;;;9.20;94.60;;;;;;5093043;28;20909;-75
2021/03/18 09:44:27;;;;;;;14.83;12.27;;;9.30;94.10;;;;;;5093978;28;20581;-73
2021/03/18 09:46:58;;;;;;;12.67;11.33;;;9.30;93.10;;;;;;5095182;28;20922;-74
2021/03/18 09:49:32;;;;;;;11.33;10.43;;;9.40;93.10;;;;;;5095984;28;20395;-73
2021/03/18 09:52:03;;;;;;;10.87;9.83;;;9.40;92.40;;;;;;5095204;28;20426;-72
2021/03/18 09:54:29;;;;;;;10.10;9.20;;;9.50;92.00;;;;;;5095362;28;20387;-73
2021/03/18 09:56:59;;;;;;;11.93;10.50;;;9.60;91.30;;;;;;5092047;28;20763;-72
2021/03/18 09:59:26;;;;;;;9.43;8.40;;;9.70;91.00;;;;;;5095422;28;20489;-72
2021/03/18 10:01:51;;;;;;;10.57;9.53;;;9.80;90.50;;;;;;5094897;28;20405;-72
2021/03/18 10:04:20;;;;;;;9.30;7.80;;;9.80;90.30;;;;;;5095408;28;20419;-73
2021/03/18 10:06:53;;;;;;;10.23;9.23;;;9.90;89.50;;;;;;5094709;28;20445;-74
2021/03/18 10:09:31;;;;;;;9.30;8.40;;;10.10;88.70;;;;;;5095070;28;20452;-73
2021/03/18 10:11:59;;;;;;;9.70;8.90;;;10.10;87.30;;;;;;5076395;28;20415;-74
2021/03/18 10:14:51;;;;;;;10.60;9.50;;;10.30;87.80;;;;;;5076924;28;20398;-74
2021/03/18 10:17:41;;;;;;;8.17;7.40;;;10.30;86.00;;;;;;5074404;28;20449;-74
2021/03/18 10:20:18;;;;;;;8.90;7.60;;;10.20;85.20;;;;;;5064942;28;20837;-74
2021/03/18 10:23:06;;;;;;;10.57;8.60;;;10.30;84.80;;;;;;5074136;28;20395;-74
2021/03/18 10:25:35;;;;;;;9.50;8.60;;;10.40;87.30;;;;;;5057813;28;20465;-74
2021/03/18 10:28:02;;;;;;;10.63;9.63;;;10.60;88.90;;;;;;5074202;28;20408;-74
2021/03/18 10:30:28;;;;;;;8.30;7.53;;;10.80;85.90;;;;;;5074731;28;20414;-74
2021/03/18 10:33:15;;;;;;;9.63;8.83;;;10.90;84.40;;;;;;5073795;28;20740;-74
2021/03/18 10:35:52;;;;;;;9.77;8.93;;;10.90;83.10;;;;;;5074280;28;20479;-76
2021/03/18 10:38:44;;;;;;;8.47;7.87;;;11.00;82.70;;;;;;5056791;28;20403;-74
2021/03/18 10:41:13;;;;;;;9.20;8.30;;;11.00;81.30;;;;;;5073398;28;20436;-74
2021/03/18 10:43:47;;;;;;;9.23;8.33;;;11.00;79.80;;;;;;5074522;28;20445;-74
2021/03/18 10:46:16;;;;;;;9.10;8.20;;;10.80;79.20;;;;;;5074012;28;20451;-74
2021/03/18 10:48:46;;;;;;;9.10;7.30;;;10.80;80.40;;;;;;5073832;28;20408;-76
2021/03/18 10:51:14;;;;;;;7.70;7.00;;;10.90;80.40;;;;;;5056809;28;20390;-74
2021/03/18 10:53:44;;;;;;;6.80;6.30;;;10.90;78.90;;;;;;5056320;28;20744;-74
2021/03/18 10:56:39;;;;;;;6.93;6.43;;;10.90;80.00;;;;;;5074304;28;20397;-74
2021/03/18 10:59:16;;;;;;;9.70;8.77;;;10.90;81.00;;;;;;5052200;28;20475;-74
2021/03/18 11:01:42;;;;;;;7.73;6.97;;;11.00;80.50;;;;;;5073488;28;20401;-75
2021/03/18 11:04:10;;;;;;;11.50;8.27;;;11.00;79.60;;;;;;5074029;28;20436;-74
2021/03/18 11:06:51;;;;;;;8.27;7.47;;;11.10;79.30;;;;;;5074063;28;20459;-74
2021/03/18 11:09:18;;;;;;;7.57;6.90;;;11.10;80.90;;;;;;5073985;28;20508;-74
2021/03/18 11:11:58;;;;;;;7.00;6.30;;;11.30;79.90;;;;;;5055509;28;20414;-74
2021/03/18 11:14:27;;;;;;;6.47;4.80;;;11.50;78.70;;;;;;5073978;28;20484;-74
2021/03/18 11:17:07;;;;;;;7.40;6.77;;;11.80;77.90;;;;;;5055329;28;20394;-75
2021/03/18 11:19:34;;;;;;;6.37;5.87;;;11.90;75.40;;;;;;5073723;28;20476;-75
2021/03/18 11:22:03;;;;;;;7.77;6.33;;;12.10;76.60;;;;;;5073082;28;20407;-75
2021/03/18 11:24:29;;;;;;;8.50;7.70;;;12.30;77.80;;;;;;5073707;28;20418;-75
2021/03/18 11:27:01;;;;;;;9.27;8.23;;;12.50;75.60;;;;;;5072602;28;20447;-75
2021/03/18 11:29:33;;;;;;;9.00;8.10;;;12.60;76.20;;;;;;5073531;28;20936;-74
2021/03/18 11:32:02;;;;;;;9.10;7.67;;;12.60;78.10;;;;;;5072306;28;20395;-74
2021/03/18 11:34:31;;;;;;;7.97;7.27;;;12.60;79.20;;;;;;5072748;28;20406;-75
2021/03/18 11:37:17;;;;;;;8.70;8.00;;;12.70;75.70;;;;;;5054158;28;20426;-75
2021/03/18 11:39:44;;;;;;;8.83;8.03;;;12.60;75.50;;;;;;5073152;28;20447;-75
2021/03/18 11:42:09;;;;;;;9.00;8.10;;;12.40;75.20;;;;;;5073267;28;20402;-75
2021/03/18 11:44:35;;;;;;;9.33;8.73;;;12.20;74.50;;;;;;5073191;28;20912;-75
2021/03/18 11:47:11;;;;;;;7.90;7.30;;;12.00;74.10;;;;;;5072698;28;20644;-75
2021/03/18 11:49:38;;;;;;;10.47;9.57;;;11.90;74.50;;;;;;5073455;28;20703;-74
2021/03/18 11:52:06;;;;;;;8.60;7.90;;;11.80;75.60;;;;;;5071757;28;20472;-74
2021/03/18 11:54:33;;;;;;;11.00;10.00;;;11.60;75.00;;;;;;5073105;28;20439;-74
2021/03/18 11:56:59;;;;;;;9.07;8.17;;;11.40;74.90;;;;;;5072369;28;20428;-72
2021/03/18 11:59:25;;;;;;;10.63;9.27;;;11.40;76.40;;;;;;5073077;28;20433;-74
2021/03/18 12:01:51;;;;;;;10.77;8.97;;;11.30;75.80;;;;;;5072439;28;20814;-75
2021/03/18 12:04:17;;;;;;;11.70;9.97;;;11.20;78.60;;;;;;5072686;28;20444;-74
2021/03/18 12:06:43;;;;;;;13.20;11.90;;;11.10;78.90;;;;;;5072847;28;20479;-74
2021/03/18 12:09:09;;;;;;;15.10;13.50;;;11.00;79.00;;;;;;5072238;28;20412;-75
2021/03/18 12:11:35;;;;;;;11.33;10.23;;;10.90;80.10;;;;;;5054911;28;20175;-75
2021/03/18 12:14:02;;;;;;;13.27;11.30;;;10.80;79.80;;;;;;5072247;28;20399;-73
2021/03/18 12:16:28;;;;;;;14.70;12.17;;;10.70;80.00;;;;;;5072741;28;20404;-75
2021/03/18 12:18:53;;;;;;;17.67;14.50;;;10.70;79.50;;;;;;5072110;28;20457;-75
2021/03/18 12:21:19;;;;;;;17.93;13.00;;;10.60;80.40;;;;;;5072623;28;20177;-73
2021/03/18 12:23:46;;;;;;;16.10;14.40;;;10.60;80.90;;;;;;5072781;28;20231;-74
2021/03/18 12:26:12;;;;;;;20.90;15.60;;;10.60;80.10;;;;;;5072362;28;20552;-75
2021/03/18 12:28:38;;;;;;;19.70;14.87;;;10.60;79.50;;;;;;5072643;28;20396;-76
2021/03/18 12:31:04;;;;;;;17.50;15.30;;;10.50;79.70;;;;;;5072070;28;20618;-75
2021/03/18 12:33:30;;;;;;;23.00;18.30;;;10.40;79.70;;;;;;5072638;28;20408;-75
2021/03/18 12:35:56;;;;;;;24.10;18.33;;;10.30;80.50;;;;;;5072102;28;20415;-75
2021/03/18 12:38:22;;;;;;;20.70;17.00;;;10.20;82.50;;;;;;5072487;28;20906;-75
2021/03/18 12:40:50;;;;;;;22.20;18.23;;;10.10;82.90;;;;;;5072051;28;20180;-77
2021/03/18 12:43:16;;;;;;;20.97;16.00;;;10.00;84.10;;;;;;5071942;28;20400;-74
2021/03/18 12:45:42;;;;;;;21.70;17.27;;;9.90;84.30;;;;;;5072013;28;20466;-75
2021/03/18 12:48:09;;;;;;;20.27;16.63;;;9.90;85.70;;;;;;5071740;28;20410;-75
2021/03/18 12:50:36;;;;;;;16.33;14.63;;;9.90;85.60;;;;;;5072338;28;20431;-75
2021/03/18 12:53:02;;;;;;;18.13;15.13;;;9.90;86.50;;;;;;5071880;28;20456;-75